Time;durP1;ratioP1;P1;durP2;ratioP2;P2;SDS_P1;SDS_P2;PMS_P1;PMS_P2;Temp;Humidity;BMP_temperature;BMP_pressure;BME280_temperature;BME280_humidity;BME280_pressure;Samples;Min_cycle;Max_cycle;Signal;HPM_P1;HPM_P2
2023/09/01 00:00:14;;;;;;;2.80;2.30;;;15.30;99.90;;;;;;5005454;28;20391;-37
2023/09/01 00:02:40;;;;;;;3.35;2.05;;;15.20;99.90;;;;;;5002502;28;20068;-35
2023/09/01 00:05:06;;;;;;;6.82;2.63;;;15.20;99.90;;;;;;5001292;28;20062;-39
2023/09/01 00:07:32;;;;;;;2.80;2.38;;;15.30;99.90;;;;;;5005518;28;20018;-38
2023/09/01 00:09:58;;;;;;;2.47;2.28;;;15.20;99.90;;;;;;5004327;28;20096;-36
2023/09/01 00:12:28;;;;;;;3.08;2.10;;;15.20;99.90;;;;;;5007163;28;20029;-38
2023/09/01 00:14:53;;;;;;;3.65;2.78;;;15.20;99.90;;;;;;5002508;28;20040;-39
2023/09/01 00:17:19;;;;;;;3.83;2.40;;;15.20;99.90;;;;;;5003390;28;20038;-41
2023/09/01 00:19:44;;;;;;;3.63;2.20;;;15.20;99.90;;;;;;5004853;28;20452;-37
2023/09/01 00:22:10;;;;;;;3.42;2.35;;;15.20;99.90;;;;;;5005187;28;20052;-38
2023/09/01 00:24:37;;;;;;;4.05;2.50;;;15.10;99.90;;;;;;4999594;28;20105;-40
2023/09/01 00:27:02;;;;;;;3.75;2.90;;;14.90;99.90;;;;;;5003723;28;20018;-39
2023/09/01 00:29:28;;;;;;;6.85;3.30;;;14.80;99.90;;;;;;5003352;28;20068;-37
2023/09/01 00:31:54;;;;;;;3.70;3.00;;;14.80;99.90;;;;;;5003439;28;20512;-39
2023/09/01 00:34:19;;;;;;;4.18;2.80;;;14.70;99.90;;;;;;5004186;28;20030;-40
2023/09/01 00:36:49;;;;;;;3.20;2.75;;;14.70;99.90;;;;;;5002309;28;20038;-35
2023/09/01 00:39:14;;;;;;;3.63;3.33;;;14.70;99.90;;;;;;4998503;28;20068;-33
2023/09/01 00:41:40;;;;;;;3.42;2.78;;;14.70;99.90;;;;;;5001113;28;20550;-37
2023/09/01 00:44:06;;;;;;;3.85;3.10;;;14.70;99.90;;;;;;5006767;28;20030;-36
2023/09/01 00:46:32;;;;;;;5.82;2.80;;;14.70;99.90;;;;;;5006196;28;20072;-35
2023/09/01 00:48:58;;;;;;;3.58;2.88;;;14.70;99.90;;;;;;5006122;28;20030;-34
2023/09/01 00:51:25;;;;;;;6.50;2.60;;;14.70;99.90;;;;;;5004103;28;20032;-34
2023/09/01 00:53:51;;;;;;;3.75;2.92;;;14.80;99.90;;;;;;4999424;28;20034;-32
2023/09/01 00:56:18;;;;;;;4.35;2.60;;;14.80;99.90;;;;;;5005041;28;20046;-35
2023/09/01 00:58:44;;;;;;;3.45;2.83;;;14.80;99.90;;;;;;5001024;28;20029;-34
2023/09/01 01:01:10;;;;;;;5.10;3.28;;;14.80;99.90;;;;;;5001708;28;20044;-33
2023/09/01 01:03:36;;;;;;;3.65;2.78;;;14.80;99.90;;;;;;4998951;28;20556;-34
2023/09/01 01:06:27;;;;;;;5.78;2.95;;;14.90;99.90;;;;;;5003812;28;20029;-33
2023/09/01 01:09:16;;;;;;;3.25;2.72;;;14.90;99.90;;;;;;5004692;28;20057;-34
2023/09/01 01:12:06;;;;;;;2.95;2.65;;;14.80;99.90;;;;;;5000983;28;20034;-33
2023/09/01 01:14:49;;;;;;;3.40;2.88;;;14.80;99.90;;;;;;5003306;28;20022;-35
2023/09/01 01:17:18;;;;;;;3.42;2.65;;;14.80;99.90;;;;;;5000770;28;20594;-39
2023/09/01 01:19:50;;;;;;;4.75;2.83;;;14.80;99.90;;;;;;5005255;28;20056;-34
2023/09/01 01:22:27;;;;;;;2.88;2.60;;;14.80;99.90;;;;;;4999921;28;20124;-34
2023/09/01 01:24:52;;;;;;;5.70;2.60;;;14.90;99.90;;;;;;5003068;28;20056;-38
2023/09/01 01:27:18;;;;;;;3.97;2.90;;;14.90;99.90;;;;;;5002354;28;20033;-34
2023/09/01 01:29:44;;;;;;;3.28;2.88;;;14.90;99.90;;;;;;5004507;28;20030;-35
2023/09/01 01:32:09;;;;;;;3.10;2.60;;;14.90;99.90;;;;;;5002817;28;20136;-33
2023/09/01 01:34:37;;;;;;;4.45;2.75;;;14.90;99.90;;;;;;5001907;28;20034;-34
2023/09/01 01:37:42;;;;;;;3.35;2.97;;;14.90;99.90;;;;;;5002705;28;20029;-39
2023/09/01 01:40:09;;;;;;;3.47;2.70;;;15.00;99.90;;;;;;4999908;28;20361;-41
2023/09/01 01:42:37;;;;;;;6.03;3.03;;;15.00;99.90;;;;;;4999332;28;20033;-36
2023/09/01 01:45:04;;;;;;;3.90;2.88;;;15.00;99.90;;;;;;5000893;28;20868;-41
2023/09/01 01:47:32;;;;;;;3.45;2.75;;;15.00;99.90;;;;;;5007211;28;20273;-31
2023/09/01 01:49:58;;;;;;;5.40;3.10;;;15.00;99.90;;;;;;5002104;28;20034;-35
2023/09/01 01:52:24;;;;;;;4.53;3.00;;;15.00;99.90;;;;;;5002660;28;20088;-31
2023/09/01 01:54:49;;;;;;;3.15;2.65;;;15.10;99.90;;;;;;5002160;28;20537;-31
2023/09/01 01:57:16;;;;;;;3.10;2.50;;;15.10;99.90;;;;;;5002436;28;20045;-34
2023/09/01 01:59:43;;;;;;;5.18;3.25;;;15.10;99.90;;;;;;5015053;28;20042;-34
2023/09/01 02:02:09;;;;;;;4.78;3.45;;;15.10;99.90;;;;;;5005145;28;20076;-30
2023/09/01 02:04:35;;;;;;;4.70;3.08;;;15.00;99.90;;;;;;5005989;28;20539;-36
2023/09/01 02:07:05;;;;;;;3.35;3.00;;;15.00;99.90;;;;;;5007728;28;20759;-32
2023/09/01 02:09:33;;;;;;;5.13;3.10;;;15.00;99.90;;;;;;5004729;28;20120;-37
2023/09/01 02:11:58;;;;;;;4.28;3.05;;;14.90;99.90;;;;;;5009052;28;20030;-33
2023/09/01 02:14:24;;;;;;;4.28;2.85;;;14.90;99.90;;;;;;5013742;28;20040;-34
2023/09/01 02:16:50;;;;;;;5.18;3.47;;;14.90;99.90;;;;;;5008049;28;20040;-32
2023/09/01 02:19:15;;;;;;;4.43;3.05;;;15.00;99.90;;;;;;5006696;28;20037;-31
2023/09/01 02:21:41;;;;;;;5.95;3.58;;;15.00;99.90;;;;;;5004415;28;20052;-34
2023/09/01 02:24:06;;;;;;;5.95;3.38;;;15.00;99.90;;;;;;5019685;28;20642;-34
2023/09/01 02:26:32;;;;;;;4.03;3.60;;;14.90;99.90;;;;;;5002785;28;20029;-33
2023/09/01 02:28:58;;;;;;;4.35;3.28;;;14.90;99.90;;;;;;5007333;28;20029;-33
2023/09/01 02:31:24;;;;;;;4.10;3.50;;;14.90;99.90;;;;;;5005029;28;20046;-33
2023/09/01 02:33:50;;;;;;;4.70;3.25;;;14.90;99.90;;;;;;5002248;28;20030;-31
2023/09/01 02:36:30;;;;;;;4.53;3.15;;;14.90;99.90;;;;;;5009054;28;20109;-37
2023/09/01 02:38:57;;;;;;;4.65;3.58;;;14.90;99.90;;;;;;5002597;28;20025;-32
2023/09/01 02:41:23;;;;;;;3.90;3.50;;;15.00;99.90;;;;;;5008808;28;20073;-32
2023/09/01 02:43:50;;;;;;;5.35;3.85;;;15.00;99.90;;;;;;5002576;28;20034;-37
2023/09/01 02:46:16;;;;;;;4.25;3.30;;;14.90;99.90;;;;;;5020080;28;20026;-38
2023/09/01 02:48:41;;;;;;;5.68;3.45;;;14.80;99.90;;;;;;5004765;28;20096;-37
2023/09/01 02:51:07;;;;;;;3.83;3.30;;;14.80;99.90;;;;;;5004133;28;20034;-37
2023/09/01 02:53:34;;;;;;;6.85;3.67;;;14.80;99.90;;;;;;5005607;28;20029;-36
2023/09/01 02:56:00;;;;;;;4.20;3.17;;;14.80;99.90;;;;;;5008609;28;20703;-43
2023/09/01 02:58:26;;;;;;;4.05;3.22;;;14.80;99.90;;;;;;5006784;28;20061;-41
2023/09/01 03:00:52;;;;;;;2.92;2.65;;;14.80;99.90;;;;;;5002647;28;20694;-40
2023/09/01 03:03:19;;;;;;;4.20;3.00;;;14.70;99.90;;;;;;5005254;28;20076;-38
2023/09/01 03:05:46;;;;;;;3.88;2.97;;;14.80;99.90;;;;;;5006472;28;20022;-39
2023/09/01 03:08:12;;;;;;;4.68;2.80;;;14.80;99.90;;;;;;5001105;28;20081;-32
2023/09/01 03:10:38;;;;;;;3.70;2.97;;;14.80;99.90;;;;;;5006142;28;20511;-34
2023/09/01 03:13:04;;;;;;;3.65;3.17;;;14.80;99.90;;;;;;5008425;28;20080;-31
2023/09/01 03:15:30;;;;;;;4.38;3.03;;;14.90;99.90;;;;;;5007119;28;20033;-34
2023/09/01 03:17:56;;;;;;;5.03;3.33;;;14.90;99.90;;;;;;5003541;28;20033;-31
2023/09/01 03:20:23;;;;;;;4.07;3.20;;;14.90;99.90;;;;;;5004159;28;20061;-37
2023/09/01 03:22:49;;;;;;;3.15;2.85;;;14.90;99.90;;;;;;5004164;28;20037;-31
2023/09/01 03:25:15;;;;;;;4.15;2.90;;;14.90;99.90;;;;;;5005508;28;20036;-31
2023/09/01 03:27:42;;;;;;;4.45;3.20;;;14.90;99.90;;;;;;5001402;28;20100;-32
2023/09/01 03:30:08;;;;;;;3.63;3.22;;;14.90;99.90;;;;;;5006876;28;20034;-33
2023/09/01 03:32:34;;;;;;;4.50;2.83;;;14.90;99.90;;;;;;5006237;28;20041;-33
2023/09/01 03:35:00;;;;;;;3.03;2.60;;;14.80;99.90;;;;;;5008355;28;20045;-33
2023/09/01 03:37:26;;;;;;;3.83;2.80;;;14.80;99.90;;;;;;5002001;28;20815;-33
2023/09/01 03:39:52;;;;;;;3.47;2.75;;;14.80;99.90;;;;;;4998680;28;20030;-32
2023/09/01 03:42:18;;;;;;;4.40;3.13;;;14.80;99.90;;;;;;5004357;28;20693;-33
2023/09/01 03:44:44;;;;;;;4.55;2.75;;;14.80;99.90;;;;;;5003629;28;20028;-31
2023/09/01 03:47:10;;;;;;;3.25;2.33;;;14.80;99.90;;;;;;5004938;28;20024;-31
2023/09/01 03:49:36;;;;;;;2.75;2.50;;;14.80;99.90;;;;;;5003805;28;20037;-32
2023/09/01 03:52:03;;;;;;;3.55;2.28;;;14.90;99.90;;;;;;5000071;28;20036;-33
2023/09/01 03:54:29;;;;;;;2.90;2.58;;;14.90;99.90;;;;;;5004053;28;20113;-32
2023/09/01 03:56:54;;;;;;;3.80;2.53;;;14.90;99.90;;;;;;5004080;28;20823;-37
2023/09/01 03:59:20;;;;;;;3.10;2.40;;;14.90;99.90;;;;;;5002685;28;20034;-39
2023/09/01 04:01:46;;;;;;;2.95;2.22;;;14.90;99.90;;;;;;5009473;28;20029;-36
2023/09/01 04:04:13;;;;;;;4.05;2.30;;;14.90;99.90;;;;;;5004677;28;20091;-38
2023/09/01 04:06:41;;;;;;;2.88;2.10;;;14.80;99.90;;;;;;5004358;28;20030;-36
2023/09/01 04:09:08;;;;;;;;;;;14.80;99.90;;;;;;5003801;28;20057;-38
2023/09/01 04:11:34;;;;;;;3.28;2.50;;;14.90;99.90;;;;;;5001965;28;19956;-39
2023/09/01 04:14:00;;;;;;;2.45;2.25;;;14.80;99.90;;;;;;5005136;28;20103;-41
2023/09/01 04:16:26;;;;;;;2.47;2.20;;;14.80;99.90;;;;;;5004613;28;20104;-39
2023/09/01 04:18:52;;;;;;;2.95;2.30;;;14.80;99.90;;;;;;5001370;28;20048;-38
2023/09/01 04:21:17;;;;;;;4.47;2.30;;;14.80;99.90;;;;;;5005152;28;20033;-38
2023/09/01 04:23:43;;;;;;;3.50;2.22;;;14.80;99.90;;;;;;5000965;28;20045;-36
2023/09/01 04:26:09;;;;;;;2.25;2.05;;;14.70;99.90;;;;;;5004476;28;20026;-38
2023/09/01 04:28:35;;;;;;;2.42;2.20;;;14.70;99.90;;;;;;5003711;28;20032;-38
2023/09/01 04:31:02;;;;;;;3.33;2.20;;;14.70;99.90;;;;;;5001332;28;20730;-37
2023/09/01 04:33:28;;;;;;;2.80;2.33;;;14.80;99.90;;;;;;5005995;28;20025;-39
2023/09/01 04:36:05;;;;;;;2.67;2.00;;;14.70;99.90;;;;;;5002602;28;20037;-40
2023/09/01 04:38:31;;;;;;;4.82;2.20;;;14.70;99.90;;;;;;4999705;28;20510;-41
2023/09/01 04:40:57;;;;;;;3.55;2.17;;;14.70;99.90;;;;;;5001476;28;20040;-37
2023/09/01 04:43:27;;;;;;;2.33;2.13;;;14.70;99.90;;;;;;5004747;28;20030;-39
2023/09/01 04:45:53;;;;;;;3.00;2.30;;;14.70;99.90;;;;;;5004568;28;20025;-37
2023/09/01 04:48:20;;;;;;;2.40;2.20;;;14.70;99.90;;;;;;5001577;28;20029;-39
2023/09/01 04:50:46;;;;;;;3.17;2.17;;;14.70;99.90;;;;;;5005299;28;20045;-37
2023/09/01 04:53:11;;;;;;;2.70;2.22;;;14.70;99.90;;;;;;5003915;28;20061;-39
2023/09/01 04:55:37;;;;;;;2.50;2.30;;;14.70;99.90;;;;;;5002332;28;20560;-38
2023/09/01 04:58:02;;;;;;;2.13;1.98;;;14.60;99.90;;;;;;5003395;28;20035;-39
2023/09/01 05:00:28;;;;;;;3.50;2.40;;;14.70;99.90;;;;;;5003311;28;20038;-38
2023/09/01 05:02:54;;;;;;;2.78;2.40;;;14.70;99.90;;;;;;5002708;28;20029;-40
2023/09/01 05:05:20;;;;;;;3.30;2.40;;;14.80;99.90;;;;;;5003626;28;20071;-39
2023/09/01 05:07:46;;;;;;;2.70;2.50;;;14.80;99.90;;;;;;5002859;28;20288;-39
2023/09/01 05:10:11;;;;;;;6.25;2.40;;;14.80;99.90;;;;;;5003869;28;20033;-37
2023/09/01 05:12:37;;;;;;;2.20;2.00;;;14.80;99.90;;;;;;5002265;28;20063;-38
2023/09/01 05:15:04;;;;;;;2.30;2.08;;;14.80;99.90;;;;;;5002485;28;20038;-39
2023/09/01 05:17:30;;;;;;;4.13;2.25;;;14.90;99.90;;;;;;5001540;28;20029;-40
2023/09/01 05:19:57;;;;;;;2.88;2.10;;;14.90;99.90;;;;;;5004604;28;20595;-38
2023/09/01 05:22:23;;;;;;;2.92;2.22;;;15.00;99.90;;;;;;5006039;28;20145;-36
2023/09/01 05:24:49;;;;;;;2.15;1.95;;;15.00;99.90;;;;;;5004676;28;20542;-40
2023/09/01 05:27:19;;;;;;;3.05;2.60;;;15.00;99.90;;;;;;5003328;28;20105;-34
2023/09/01 05:29:46;;;;;;;2.90;2.30;;;15.10;99.90;;;;;;5006855;28;20036;-34
2023/09/01 05:32:12;;;;;;;2.57;2.20;;;15.00;99.90;;;;;;5001184;28;20088;-31
2023/09/01 05:34:39;;;;;;;3.35;1.88;;;15.10;99.90;;;;;;5006288;28;20061;-33
2023/09/01 05:37:05;;;;;;;2.33;2.10;;;15.10;99.90;;;;;;5003417;28;20522;-31
2023/09/01 05:39:30;;;;;;;2.75;2.53;;;15.20;99.90;;;;;;5018483;28;20029;-31
2023/09/01 05:41:56;;;;;;;5.72;2.50;;;15.20;99.90;;;;;;5006327;28;20506;-33
2023/09/01 05:44:23;;;;;;;3.25;2.38;;;15.20;99.90;;;;;;5012894;28;20434;-33
2023/09/01 05:46:48;;;;;;;2.50;2.28;;;15.30;99.90;;;;;;5008952;28;20060;-30
2023/09/01 05:49:15;;;;;;;2.40;1.90;;;15.30;99.90;;;;;;5006495;28;20022;-34
2023/09/01 05:51:40;;;;;;;2.40;2.20;;;15.40;99.90;;;;;;5008829;28;20053;-32
2023/09/01 05:54:06;;;;;;;3.35;1.98;;;15.50;99.90;;;;;;5008899;28;20062;-34
2023/09/01 05:56:32;;;;;;;3.58;1.92;;;15.50;99.90;;;;;;5010261;28;20428;-32
2023/09/01 05:58:58;;;;;;;2.55;1.92;;;15.50;99.90;;;;;;5010032;28;20036;-31
2023/09/01 06:01:25;;;;;;;3.22;2.00;;;15.50;99.90;;;;;;5005325;28;20039;-30
2023/09/01 06:03:50;;;;;;;2.47;1.98;;;15.60;99.90;;;;;;5005941;28;20048;-33
2023/09/01 06:06:16;;;;;;;4.15;2.00;;;15.60;99.90;;;;;;5007624;28;20029;-32
2023/09/01 06:08:42;;;;;;;2.55;1.92;;;15.60;99.90;;;;;;5004846;28;20376;-30
2023/09/01 06:11:09;;;;;;;2.63;2.25;;;15.70;99.90;;;;;;5008345;28;20109;-34
2023/09/01 06:13:36;;;;;;;2.85;1.70;;;15.70;99.90;;;;;;5006377;28;20026;-34
2023/09/01 06:16:06;;;;;;;4.97;2.03;;;15.80;99.90;;;;;;5005262;28;20553;-33
2023/09/01 06:18:31;;;;;;;2.40;1.85;;;15.80;99.90;;;;;;5000675;28;20049;-37
2023/09/01 06:20:57;;;;;;;2.40;2.05;;;15.80;99.90;;;;;;5005602;28;20042;-37
2023/09/01 06:23:23;;;;;;;2.15;1.95;;;15.90;99.90;;;;;;5005744;28;20057;-39
2023/09/01 06:25:48;;;;;;;3.50;2.10;;;15.90;99.90;;;;;;5001958;28;20565;-36
2023/09/01 06:28:14;;;;;;;2.47;1.90;;;16.00;99.90;;;;;;5005027;28;20033;-40
2023/09/01 06:30:41;;;;;;;3.08;1.90;;;16.00;99.90;;;;;;5004458;28;20030;-39
2023/09/01 06:33:08;;;;;;;2.33;2.13;;;16.10;99.90;;;;;;5005758;28;20022;-38
2023/09/01 06:35:34;;;;;;;1.95;1.77;;;16.10;99.90;;;;;;5002782;28;20026;-40
2023/09/01 06:38:04;;;;;;;1.98;1.80;;;16.20;99.90;;;;;;5006274;28;20030;-35
2023/09/01 06:40:30;;;;;;;3.65;1.92;;;16.30;99.90;;;;;;5003913;28;20356;-33
2023/09/01 06:42:55;;;;;;;2.10;1.67;;;16.40;99.90;;;;;;5004009;28;20061;-34
2023/09/01 06:45:21;;;;;;;2.97;2.08;;;16.40;99.90;;;;;;5004308;28;20042;-33
2023/09/01 06:47:49;;;;;;;2.15;1.88;;;16.40;99.90;;;;;;5001534;28;20052;-34
2023/09/01 06:50:14;;;;;;;2.67;1.98;;;16.50;99.90;;;;;;5006982;28;20014;-34
2023/09/01 06:52:40;;;;;;;3.05;2.10;;;16.60;99.90;;;;;;5004231;28;20410;-32
2023/09/01 06:55:06;;;;;;;2.45;1.85;;;16.70;99.90;;;;;;5004933;28;20053;-35
2023/09/01 06:57:31;;;;;;;2.40;2.20;;;16.80;99.90;;;;;;5005711;28;20088;-33
2023/09/01 06:59:57;;;;;;;2.45;1.60;;;16.90;99.90;;;;;;5008312;28;20065;-32
2023/09/01 07:02:23;;;;;;;2.10;1.80;;;17.10;99.90;;;;;;5005099;28;20394;-34
2023/09/01 07:04:49;;;;;;;5.30;1.90;;;17.10;99.90;;;;;;5004750;28;20026;-35
2023/09/01 07:07:14;;;;;;;3.22;1.80;;;17.20;99.90;;;;;;5004133;28;20033;-33
2023/09/01 07:09:40;;;;;;;2.35;1.85;;;17.30;99.90;;;;;;5002938;28;20022;-33
2023/09/01 07:12:05;;;;;;;2.22;2.03;;;17.30;99.90;;;;;;5006507;28;20033;-31
2023/09/01 07:14:31;;;;;;;2.58;2.20;;;17.40;99.90;;;;;;5007744;28;20153;-35
2023/09/01 07:16:57;;;;;;;2.17;1.88;;;17.40;99.90;;;;;;5001637;28;20037;-36
2023/09/01 07:19:22;;;;;;;3.22;1.88;;;17.40;99.90;;;;;;5003435;28;20675;-34
2023/09/01 07:21:48;;;;;;;2.13;1.80;;;17.50;99.90;;;;;;5005604;28;20546;-33
2023/09/01 07:24:14;;;;;;;2.35;1.75;;;17.50;99.90;;;;;;5007283;28;20507;-33
2023/09/01 07:26:39;;;;;;;2.20;1.90;;;17.50;99.90;;;;;;5004658;28;20030;-32
2023/09/01 07:29:05;;;;;;;2.92;2.10;;;17.60;99.90;;;;;;5003208;28;20218;-33
2023/09/01 07:31:30;;;;;;;3.67;1.80;;;17.70;99.90;;;;;;5005995;28;20962;-35
2023/09/01 07:33:57;;;;;;;2.10;1.83;;;17.90;99.90;;;;;;5003512;28;20388;-32
2023/09/01 07:36:22;;;;;;;2.70;1.80;;;18.00;99.90;;;;;;5005223;28;20034;-33
2023/09/01 07:38:48;;;;;;;2.10;1.63;;;18.20;99.90;;;;;;4999964;28;20168;-33
2023/09/01 07:41:14;;;;;;;2.53;1.70;;;18.30;99.90;;;;;;5007601;28;20072;-32
2023/09/01 07:43:39;;;;;;;2.70;1.77;;;18.30;99.90;;;;;;5003945;28;20117;-32
2023/09/01 07:46:05;;;;;;;2.22;1.70;;;18.20;99.90;;;;;;5006449;28;20613;-35
2023/09/01 07:48:31;;;;;;;2.45;1.92;;;18.10;99.90;;;;;;5001862;28;20022;-31
2023/09/01 07:50:57;;;;;;;2.15;1.70;;;18.10;99.90;;;;;;5002932;28;20456;-31
2023/09/01 07:53:23;;;;;;;3.00;1.80;;;18.00;99.90;;;;;;5011619;28;20116;-31
2023/09/01 07:55:48;;;;;;;3.92;1.63;;;18.00;99.90;;;;;;5004903;28;20030;-31
2023/09/01 07:58:14;;;;;;;2.58;1.50;;;18.00;99.90;;;;;;5008309;28;20427;-34
2023/09/01 08:00:40;;;;;;;2.33;1.67;;;18.00;99.90;;;;;;5015467;28;20032;-34
2023/09/01 08:03:10;;;;;;;2.03;1.75;;;18.10;99.90;;;;;;5003440;28;20069;-32
2023/09/01 08:05:37;;;;;;;1.80;1.35;;;18.30;99.90;;;;;;5005978;28;20021;-32
2023/09/01 08:08:04;;;;;;;2.28;1.65;;;18.50;99.90;;;;;;5004007;28;20030;-33
2023/09/01 08:10:30;;;;;;;3.42;1.77;;;18.70;99.90;;;;;;5002385;28;20022;-33
2023/09/01 08:12:56;;;;;;;2.08;1.50;;;18.80;99.90;;;;;;5005941;28;20032;-32
2023/09/01 08:15:21;;;;;;;2.67;1.50;;;18.80;99.90;;;;;;5002761;28;20471;-32
2023/09/01 08:17:49;;;;;;;2.50;1.70;;;18.90;99.90;;;;;;5007516;28;20034;-31
2023/09/01 08:20:17;;;;;;;1.63;1.50;;;18.90;99.90;;;;;;5022544;28;20041;-32
2023/09/01 08:22:43;;;;;;;4.22;1.70;;;18.90;99.90;;;;;;5003885;28;20669;-31
2023/09/01 08:25:09;;;;;;;2.08;1.30;;;18.90;99.90;;;;;;5004717;28;20033;-33
2023/09/01 08:27:35;;;;;;;3.45;1.50;;;19.10;99.90;;;;;;5006687;28;20571;-31
2023/09/01 08:30:03;;;;;;;2.97;1.95;;;19.20;99.90;;;;;;5007860;28;20026;-31
2023/09/01 08:32:29;;;;;;;4.03;1.55;;;19.60;99.90;;;;;;5002209;28;20042;-31
2023/09/01 08:34:55;;;;;;;1.98;1.40;;;19.90;99.90;;;;;;5004129;28;20468;-31
2023/09/01 08:37:20;;;;;;;1.52;1.42;;;19.80;99.90;;;;;;5006191;28;20607;-38
2023/09/01 08:39:46;;;;;;;2.78;1.52;;;20.00;99.90;;;;;;5001317;28;20061;-38
2023/09/01 08:42:13;;;;;;;2.60;1.77;;;20.20;99.90;;;;;;5000767;28;20026;-39
2023/09/01 08:44:41;;;;;;;4.07;1.60;;;20.30;99.90;;;;;;5003012;28;20032;-40
2023/09/01 08:47:08;;;;;;;1.58;1.48;;;20.30;99.90;;;;;;5001755;28;20026;-38
2023/09/01 08:49:34;;;;;;;2.70;1.55;;;20.40;99.90;;;;;;5002639;28;20024;-40
2023/09/01 08:52:02;;;;;;;2.10;1.50;;;20.40;99.90;;;;;;5003468;28;20021;-38
2023/09/01 08:54:30;;;;;;;2.80;1.50;;;20.50;99.90;;;;;;4998902;28;20041;-37
2023/09/01 08:56:55;;;;;;;3.05;1.77;;;20.40;99.90;;;;;;5003505;28;20032;-39
2023/09/01 08:59:21;;;;;;;2.78;1.73;;;20.60;99.90;;;;;;5000795;28;20492;-35
2023/09/01 09:01:48;;;;;;;2.25;1.67;;;20.70;99.90;;;;;;5002652;28;20073;-40
2023/09/01 09:04:14;;;;;;;2.90;2.00;;;20.80;99.90;;;;;;5003176;28;20037;-37
2023/09/01 09:06:40;;;;;;;3.25;1.70;;;20.80;99.90;;;;;;5004306;28;20480;-39
2023/09/01 09:09:18;;;;;;;2.88;1.70;;;20.90;99.90;;;;;;5001574;28;20022;-40
2023/09/01 09:12:00;;;;;;;1.30;1.15;;;21.10;99.90;;;;;;5002101;28;20022;-39
2023/09/01 09:14:27;;;;;;;2.33;1.67;;;21.10;99.90;;;;;;5006491;28;20037;-35
2023/09/01 09:16:57;;;;;;;3.63;1.67;;;21.00;99.90;;;;;;5002340;28;20026;-34
2023/09/01 09:19:24;;;;;;;2.40;1.40;;;20.90;99.90;;;;;;5001239;28;20526;-36
2023/09/01 09:22:06;;;;;;;1.75;1.50;;;20.80;99.90;;;;;;5002484;28;20034;-37
2023/09/01 09:24:36;;;;;;;2.13;1.42;;;20.90;99.90;;;;;;5003628;28;20510;-38
2023/09/01 09:27:03;;;;;;;2.35;1.73;;;20.80;99.90;;;;;;5004169;28;20030;-35
2023/09/01 09:29:39;;;;;;;2.70;1.70;;;20.70;99.90;;;;;;5001721;28;20034;-40
2023/09/01 09:32:18;;;;;;;1.88;1.42;;;20.70;99.90;;;;;;5003898;28;20025;-38
2023/09/01 09:35:04;;;;;;;4.43;1.60;;;20.70;99.90;;;;;;5002380;28;20050;-37
2023/09/01 09:37:29;;;;;;;2.28;1.50;;;20.90;99.90;;;;;;5001349;28;20172;-38
2023/09/01 09:40:15;;;;;;;2.47;1.85;;;21.10;99.90;;;;;;5004282;28;20113;-38
2023/09/01 09:42:42;;;;;;;2.17;1.58;;;21.20;99.90;;;;;;5003483;28;20041;-40
2023/09/01 09:45:21;;;;;;;2.60;2.05;;;21.30;99.90;;;;;;5002311;28;20095;-35
2023/09/01 09:47:49;;;;;;;2.05;1.60;;;21.50;99.90;;;;;;4999128;28;20518;-36
2023/09/01 09:50:19;;;;;;;1.90;1.55;;;21.50;99.90;;;;;;5002885;28;20029;-32
2023/09/01 09:52:49;;;;;;;3.30;1.75;;;21.40;99.90;;;;;;5003067;28;20038;-34
2023/09/01 09:55:25;;;;;;;2.80;1.80;;;21.50;99.90;;;;;;5001094;28;20049;-32
2023/09/01 09:57:54;;;;;;;2.40;1.52;;;21.30;99.90;;;;;;5003126;28;20080;-34
2023/09/01 10:00:21;;;;;;;3.80;1.77;;;21.50;99.90;;;;;;4999543;28;20080;-33
2023/09/01 10:02:55;;;;;;;3.00;1.60;;;21.50;99.90;;;;;;5001413;28;20034;-32
2023/09/01 10:05:22;;;;;;;2.75;1.90;;;21.60;99.90;;;;;;5006430;28;20026;-33
2023/09/01 10:07:48;;;;;;;3.17;1.50;;;21.40;99.90;;;;;;5004265;28;20742;-35
2023/09/01 10:10:14;;;;;;;3.92;1.60;;;21.30;99.90;;;;;;5001295;28;20054;-38
2023/09/01 10:12:40;;;;;;;1.70;1.50;;;21.20;99.90;;;;;;5002415;28;20061;-40
2023/09/01 10:15:08;;;;;;;2.95;2.08;;;21.10;99.90;;;;;;5003833;28;20076;-40
2023/09/01 10:17:34;;;;;;;2.20;1.50;;;21.00;99.90;;;;;;5002419;28;20057;-39
2023/09/01 10:20:06;;;;;;;1.77;1.50;;;21.00;99.90;;;;;;4999464;28;20355;-38
2023/09/01 10:22:38;;;;;;;3.60;1.65;;;21.10;99.90;;;;;;5002229;28;20068;-38
2023/09/01 10:25:15;;;;;;;3.50;1.70;;;21.20;99.90;;;;;;5002011;28;20460;-36
2023/09/01 10:28:04;;;;;;;4.20;1.45;;;21.30;99.90;;;;;;5001924;28;20507;-39
2023/09/01 10:30:32;;;;;;;1.75;1.40;;;21.40;99.90;;;;;;5004430;28;20113;-38
2023/09/01 10:33:01;;;;;;;;;;;21.70;99.90;;;;;;5006220;28;20030;-37
2023/09/01 10:35:46;;;;;;;1.67;1.30;;;22.00;99.90;;;;;;5004931;28;19917;-39
2023/09/01 10:38:15;;;;;;;1.58;1.48;;;22.10;99.90;;;;;;4998457;28;20113;-36
2023/09/01 10:40:54;;;;;;;2.20;1.60;;;22.30;99.90;;;;;;5005276;28;20517;-37
2023/09/01 10:43:35;;;;;;;1.83;1.35;;;22.80;99.90;;;;;;5005314;28;20030;-38
2023/09/01 10:46:16;;;;;;;1.60;1.35;;;23.10;99.90;;;;;;5005117;28;20376;-36
2023/09/01 10:48:56;;;;;;;2.13;1.20;;;23.20;99.90;;;;;;5005246;28;20562;-39
2023/09/01 10:51:29;;;;;;;1.73;1.30;;;23.00;99.90;;;;;;5003808;28;20034;-38
2023/09/01 10:53:56;;;;;;;3.80;1.52;;;23.10;99.90;;;;;;5005857;28;20371;-38
2023/09/01 10:56:22;;;;;;;1.40;1.20;;;23.20;99.90;;;;;;5008396;28;20048;-39
2023/09/01 10:58:52;;;;;;;3.45;1.38;;;23.20;99.90;;;;;;5006335;28;20046;-33
2023/09/01 11:01:26;;;;;;;1.17;1.10;;;23.40;99.90;;;;;;5003852;28;20030;-39
2023/09/01 11:03:52;;;;;;;1.58;1.30;;;22.90;99.90;;;;;;5004324;28;20037;-37
2023/09/01 11:06:17;;;;;;;1.30;1.17;;;22.80;99.90;;;;;;5004968;28;20148;-38
2023/09/01 11:09:00;;;;;;;1.83;0.98;;;22.90;99.90;;;;;;5005162;28;20030;-36
2023/09/01 11:11:26;;;;;;;1.20;1.10;;;23.00;99.90;;;;;;5003185;28;20022;-40
2023/09/01 11:14:09;;;;;;;1.50;1.40;;;23.10;99.90;;;;;;5004941;28;20034;-40
2023/09/01 11:16:35;;;;;;;2.03;1.38;;;22.80;99.90;;;;;;5006213;28;20542;-40
2023/09/01 11:19:02;;;;;;;2.72;1.30;;;22.70;99.90;;;;;;5007320;28;20029;-37
2023/09/01 11:21:28;;;;;;;1.45;1.20;;;22.90;99.90;;;;;;5003947;28;20049;-37
2023/09/01 11:23:59;;;;;;;2.10;1.55;;;23.10;99.90;;;;;;5004328;28;20065;-38
2023/09/01 11:26:24;;;;;;;1.40;1.30;;;23.20;99.90;;;;;;5003981;28;20030;-39
2023/09/01 11:28:50;;;;;;;1.92;1.35;;;23.40;99.90;;;;;;5005345;28;20038;-39
2023/09/01 11:31:15;;;;;;;1.73;1.17;;;23.50;99.90;;;;;;5000293;28;20038;-39
2023/09/01 11:33:50;;;;;;;1.83;1.33;;;23.50;99.90;;;;;;5001420;28;20276;-36
2023/09/01 11:36:17;;;;;;;1.73;1.50;;;23.50;99.90;;;;;;5005435;28;20599;-39
2023/09/01 11:38:44;;;;;;;1.40;1.20;;;23.60;99.90;;;;;;5002390;28;20049;-37
2023/09/01 11:41:20;;;;;;;2.22;1.23;;;23.40;99.90;;;;;;5003937;28;20022;-39
2023/09/01 11:43:46;;;;;;;1.90;1.50;;;23.60;99.90;;;;;;5005183;28;20022;-39
2023/09/01 11:46:12;;;;;;;3.03;1.40;;;24.00;99.90;;;;;;5003577;28;20037;-39
2023/09/01 11:48:39;;;;;;;2.38;1.17;;;24.20;99.90;;;;;;5001834;28;20069;-38
2023/09/01 11:51:07;;;;;;;2.15;1.23;;;24.00;99.90;;;;;;5000264;28;20139;-36
2023/09/01 11:53:33;;;;;;;1.30;1.20;;;23.80;99.90;;;;;;5007133;28;20033;-38
2023/09/01 11:56:03;;;;;;;1.83;1.05;;;23.70;99.90;;;;;;5000565;28;20494;-37
2023/09/01 11:58:31;;;;;;;2.03;1.08;;;23.70;99.90;;;;;;5004870;28;20554;-40
2023/09/01 12:01:06;;;;;;;1.30;1.20;;;24.00;99.90;;;;;;5004096;28;20042;-39
2023/09/01 12:03:32;;;;;;;1.48;1.35;;;23.80;99.90;;;;;;5004426;28;20044;-38
2023/09/01 12:05:57;;;;;;;1.70;1.20;;;23.70;99.90;;;;;;5006173;28;20388;-35
2023/09/01 12:08:25;;;;;;;1.40;1.30;;;23.70;99.90;;;;;;5006015;28;20076;-30
2023/09/01 12:11:04;;;;;;;1.60;1.10;;;23.50;99.90;;;;;;5007298;28;20014;-31
2023/09/01 12:13:31;;;;;;;1.58;1.10;;;23.20;99.90;;;;;;5007955;28;20040;-36
2023/09/01 12:16:01;;;;;;;1.45;1.30;;;23.20;99.90;;;;;;5004057;28;20113;-35
2023/09/01 12:18:28;;;;;;;1.65;1.33;;;23.10;99.90;;;;;;5003632;28;20092;-40
2023/09/01 12:20:54;;;;;;;2.10;1.15;;;23.00;99.90;;;;;;5006149;28;20092;-39
2023/09/01 12:23:34;;;;;;;2.65;1.10;;;22.90;99.90;;;;;;5004308;28;20057;-38
2023/09/01 12:26:01;;;;;;;1.65;1.20;;;23.10;99.90;;;;;;5004380;28;20022;-37
2023/09/01 12:28:28;;;;;;;1.73;1.50;;;23.50;99.90;;;;;;5007793;28;20044;-35
2023/09/01 12:30:58;;;;;;;2.03;1.35;;;23.70;99.90;;;;;;5003649;28;20030;-34
2023/09/01 12:33:24;;;;;;;1.42;1.27;;;23.90;99.90;;;;;;5003080;28;20064;-33
2023/09/01 12:35:50;;;;;;;1.60;1.40;;;24.10;99.90;;;;;;5002228;28;20109;-33
2023/09/01 12:38:17;;;;;;;1.77;1.25;;;24.20;99.90;;;;;;5000128;28;20069;-31
2023/09/01 12:40:42;;;;;;;1.48;1.35;;;24.10;99.90;;;;;;5003938;28;20022;-35
2023/09/01 12:43:08;;;;;;;2.47;1.40;;;24.30;99.90;;;;;;5004053;28;20029;-36
2023/09/01 12:45:34;;;;;;;1.55;1.30;;;24.30;99.90;;;;;;5004302;28;20038;-34
2023/09/01 12:48:01;;;;;;;2.53;1.27;;;24.50;99.90;;;;;;5001045;28;20072;-34
2023/09/01 12:50:27;;;;;;;2.17;1.70;;;24.40;99.90;;;;;;5001483;28;20033;-35